sensor_id;sensor_type;location;lat;lon;timestamp;temperature;humidity
13446;DHT22;6795;51.232;3.764;2024-03-06T02:35:10;12.20;99.90
13446;DHT22;6795;51.232;3.764;2024-03-06T03:17:37;5.40;99.90
13446;DHT22;6795;51.232;3.764;2024-03-06T03:20:06;4.60;99.90
13446;DHT22;6795;51.232;3.764;2024-03-06T03:22:39;4.50;99.90
13446;DHT22;6795;51.232;3.764;2024-03-06T03:25:08;4.50;99.90
13446;DHT22;6795;51.232;3.764;2024-03-06T03:27:38;4.50;99.90
13446;DHT22;6795;51.232;3.764;2024-03-06T03:30:09;4.60;99.90
13446;DHT22;6795;51.232;3.764;2024-03-06T03:32:38;4.60;99.90
13446;DHT22;6795;51.232;3.764;2024-03-06T03:35:07;4.50;99.90
13446;DHT22;6795;51.232;3.764;2024-03-06T03:37:36;4.40;99.90
13446;DHT22;6795;51.232;3.764;2024-03-06T03:40:05;4.40;99.90
13446;DHT22;6795;51.232;3.764;2024-03-06T04:25:08;4.50;99.90
13446;DHT22;6795;51.232;3.764;2024-03-06T04:35:07;4.10;99.90
13446;DHT22;6795;51.232;3.764;2024-03-06T04:37:37;3.80;99.90
13446;DHT22;6795;51.232;3.764;2024-03-06T04:40:07;3.90;99.90
13446;DHT22;6795;51.232;3.764;2024-03-06T04:42:37;3.90;99.90
13446;DHT22;6795;51.232;3.764;2024-03-06T04:45:10;4.00;99.90
13446;DHT22;6795;51.232;3.764;2024-03-06T04:47:40;3.90;99.90
13446;DHT22;6795;51.232;3.764;2024-03-06T04:50:10;3.80;99.90
13446;DHT22;6795;51.232;3.764;2024-03-06T04:55:09;3.70;99.90
13446;DHT22;6795;51.232;3.764;2024-03-06T05:24:55;3.60;99.90
13446;DHT22;6795;51.232;3.764;2024-03-06T05:47:06;2.90;99.90
13446;DHT22;6795;51.232;3.764;2024-03-06T05:49:52;2.30;99.90
13446;DHT22;6795;51.232;3.764;2024-03-06T05:52:38;2.20;99.90
13446;DHT22;6795;51.232;3.764;2024-03-06T08:35:25;2.50;99.90
13446;DHT22;6795;51.232;3.764;2024-03-06T10:00:32;6.90;99.90
13446;DHT22;6795;51.232;3.764;2024-03-06T10:46:11;8.80;99.90
13446;DHT22;6795;51.232;3.764;2024-03-06T10:48:54;12.40;99.90
13446;DHT22;6795;51.232;3.764;2024-03-06T10:51:26;12.10;99.90
13446;DHT22;6795;51.232;3.764;2024-03-06T10:53:58;12.40;99.90
13446;DHT22;6795;51.232;3.764;2024-03-06T10:56:27;12.60;99.90
13446;DHT22;6795;51.232;3.764;2024-03-06T10:58:58;12.80;99.90
13446;DHT22;6795;51.232;3.764;2024-03-06T11:01:30;12.60;99.90
13446;DHT22;6795;51.232;3.764;2024-03-06T11:06:29;12.70;99.90
13446;DHT22;6795;51.232;3.764;2024-03-06T11:08:58;13.00;99.90
13446;DHT22;6795;51.232;3.764;2024-03-06T11:16:30;12.90;99.90
13446;DHT22;6795;51.232;3.764;2024-03-06T11:57:09;12.80;99.90
13446;DHT22;6795;51.232;3.764;2024-03-06T11:59:39;14.20;99.90
13446;DHT22;6795;51.232;3.764;2024-03-06T12:02:09;13.90;99.90
13446;DHT22;6795;51.232;3.764;2024-03-06T12:04:38;13.90;99.90
13446;DHT22;6795;51.232;3.764;2024-03-06T12:07:07;14.10;99.90
13446;DHT22;6795;51.232;3.764;2024-03-06T12:09:38;14.20;99.90
13446;DHT22;6795;51.232;3.764;2024-03-06T12:12:10;13.90;99.90
13446;DHT22;6795;51.232;3.764;2024-03-06T12:14:40;13.90;99.90
13446;DHT22;6795;51.232;3.764;2024-03-06T12:17:13;14.00;99.90
13446;DHT22;6795;51.232;3.764;2024-03-06T12:19:43;14.00;99.90
13446;DHT22;6795;51.232;3.764;2024-03-06T12:22:13;14.30;99.90
13446;DHT22;6795;51.232;3.764;2024-03-06T12:24:43;14.60;99.90
13446;DHT22;6795;51.232;3.764;2024-03-06T12:27:11;14.70;99.90
13446;DHT22;6795;51.232;3.764;2024-03-06T12:29:41;14.60;99.90
13446;DHT22;6795;51.232;3.764;2024-03-06T12:32:18;14.10;99.90
13446;DHT22;6795;51.232;3.764;2024-03-06T12:34:57;14.50;99.90
13446;DHT22;6795;51.232;3.764;2024-03-06T12:37:32;14.80;99.90
13446;DHT22;6795;51.232;3.764;2024-03-06T12:40:05;15.00;99.90
13446;DHT22;6795;51.232;3.764;2024-03-06T12:42:40;14.80;99.90
13446;DHT22;6795;51.232;3.764;2024-03-06T12:45:10;14.80;99.90
13446;DHT22;6795;51.232;3.764;2024-03-06T12:48:15;14.80;99.90
13446;DHT22;6795;51.232;3.764;2024-03-06T12:51:27;15.00;99.90
13446;DHT22;6795;51.232;3.764;2024-03-06T12:54:39;14.80;99.90
13446;DHT22;6795;51.232;3.764;2024-03-06T12:57:56;14.40;99.90
13446;DHT22;6795;51.232;3.764;2024-03-06T13:01:31;14.60;99.90
13446;DHT22;6795;51.232;3.764;2024-03-06T13:05:03;14.70;99.90
13446;DHT22;6795;51.232;3.764;2024-03-06T13:08:53;15.20;99.90
13446;DHT22;6795;51.232;3.764;2024-03-06T13:12:21;15.10;99.90
13446;DHT22;6795;51.232;3.764;2024-03-06T13:15:22;15.50;99.90
13446;DHT22;6795;51.232;3.764;2024-03-06T13:18:45;15.70;99.90
13446;DHT22;6795;51.232;3.764;2024-03-06T13:22:21;15.80;99.90
13446;DHT22;6795;51.232;3.764;2024-03-06T13:25:53;15.30;99.90
13446;DHT22;6795;51.232;3.764;2024-03-06T13:30:35;14.40;99.90
13446;DHT22;6795;51.232;3.764;2024-03-06T13:32:37;13.80;99.90
13446;DHT22;6795;51.232;3.764;2024-03-06T13:36:03;13.30;99.90
13446;DHT22;6795;51.232;3.764;2024-03-06T13:38:36;13.10;99.90
13446;DHT22;6795;51.232;3.764;2024-03-06T13:43:33;12.90;99.90
13446;DHT22;6795;51.232;3.764;2024-03-06T13:46:02;12.90;99.90
13446;DHT22;6795;51.232;3.764;2024-03-06T13:48:30;13.00;99.90
13446;DHT22;6795;51.232;3.764;2024-03-06T13:51:26;13.00;99.90
13446;DHT22;6795;51.232;3.764;2024-03-06T13:55:00;13.00;99.90
13446;DHT22;6795;51.232;3.764;2024-03-06T13:58:01;13.10;99.90
13446;DHT22;6795;51.232;3.764;2024-03-06T14:00:43;13.10;99.90
13446;DHT22;6795;51.232;3.764;2024-03-06T14:03:12;13.10;99.90
13446;DHT22;6795;51.232;3.764;2024-03-06T14:05:40;13.10;99.90
13446;DHT22;6795;51.232;3.764;2024-03-06T14:08:09;13.10;99.90
13446;DHT22;6795;51.232;3.764;2024-03-06T14:10:40;13.10;99.90
13446;DHT22;6795;51.232;3.764;2024-03-06T14:13:09;13.10;99.90
13446;DHT22;6795;51.232;3.764;2024-03-06T14:15:37;13.00;99.90
13446;DHT22;6795;51.232;3.764;2024-03-06T14:18:06;13.10;99.90
13446;DHT22;6795;51.232;3.764;2024-03-06T14:20:35;13.30;99.90
13446;DHT22;6795;51.232;3.764;2024-03-06T14:23:06;13.10;99.90
13446;DHT22;6795;51.232;3.764;2024-03-06T14:25:35;12.80;99.90
13446;DHT22;6795;51.232;3.764;2024-03-06T14:28:07;12.50;99.90
13446;DHT22;6795;51.232;3.764;2024-03-06T14:30:35;12.50;99.90
13446;DHT22;6795;51.232;3.764;2024-03-06T14:33:04;12.50;99.90
13446;DHT22;6795;51.232;3.764;2024-03-06T14:35:35;12.50;99.90
13446;DHT22;6795;51.232;3.764;2024-03-06T14:38:04;12.60;99.90
13446;DHT22;6795;51.232;3.764;2024-03-06T14:40:32;12.70;99.90
13446;DHT22;6795;51.232;3.764;2024-03-06T14:43:01;12.90;99.90
13446;DHT22;6795;51.232;3.764;2024-03-06T14:46:28;13.00;99.90
13446;DHT22;6795;51.232;3.764;2024-03-06T14:50:09;13.20;99.90
13446;DHT22;6795;51.232;3.764;2024-03-06T14:53:26;13.10;99.90
13446;DHT22;6795;51.232;3.764;2024-03-06T14:58:53;13.30;99.90
13446;DHT22;6795;51.232;3.764;2024-03-06T15:00:39;13.30;99.90
13446;DHT22;6795;51.232;3.764;2024-03-06T15:04:05;13.20;99.90
13446;DHT22;6795;51.232;3.764;2024-03-06T15:07:20;13.40;99.90
13446;DHT22;6795;51.232;3.764;2024-03-06T15:10:57;13.20;99.90
13446;DHT22;6795;51.232;3.764;2024-03-06T15:14:19;13.10;99.90
13446;DHT22;6795;51.232;3.764;2024-03-06T15:17:15;13.30;99.90
13446;DHT22;6795;51.232;3.764;2024-03-06T15:19:45;13.30;99.90
13446;DHT22;6795;51.232;3.764;2024-03-06T15:22:15;13.50;99.90
13446;DHT22;6795;51.232;3.764;2024-03-06T15:24:44;13.60;99.90
13446;DHT22;6795;51.232;3.764;2024-03-06T15:27:12;13.80;99.90
13446;DHT22;6795;51.232;3.764;2024-03-06T15:30:00;13.80;99.90
13446;DHT22;6795;51.232;3.764;2024-03-06T15:33:03;13.70;99.90
13446;DHT22;6795;51.232;3.764;2024-03-06T15:35:33;13.20;99.90
13446;DHT22;6795;51.232;3.764;2024-03-06T15:38:02;12.90;99.90
13446;DHT22;6795;51.232;3.764;2024-03-06T15:40:31;12.70;99.90
13446;DHT22;6795;51.232;3.764;2024-03-06T15:42:59;12.70;99.90
13446;DHT22;6795;51.232;3.764;2024-03-06T15:45:42;12.60;99.90
13446;DHT22;6795;51.232;3.764;2024-03-06T15:48:45;12.60;99.90
13446;DHT22;6795;51.232;3.764;2024-03-06T15:52:45;12.60;99.90
13446;DHT22;6795;51.232;3.764;2024-03-06T15:55:47;12.60;99.90
13446;DHT22;6795;51.232;3.764;2024-03-06T15:58:55;12.60;99.90
13446;DHT22;6795;51.232;3.764;2024-03-06T16:02:18;12.50;99.90
13446;DHT22;6795;51.232;3.764;2024-03-06T16:05:32;12.30;99.90
13446;DHT22;6795;51.232;3.764;2024-03-06T16:12:39;12.00;99.90
13446;DHT22;6795;51.232;3.764;2024-03-06T16:15:49;11.80;99.90
13446;DHT22;6795;51.232;3.764;2024-03-06T16:18:56;11.70;99.90
13446;DHT22;6795;51.232;3.764;2024-03-06T16:22:41;11.60;99.90
13446;DHT22;6795;51.232;3.764;2024-03-06T16:26:08;11.50;99.90
13446;DHT22;6795;51.232;3.764;2024-03-06T16:29:43;11.60;99.90
13446;DHT22;6795;51.232;3.764;2024-03-06T16:33:09;11.60;99.90
13446;DHT22;6795;51.232;3.764;2024-03-06T16:36:26;11.70;99.90
13446;DHT22;6795;51.232;3.764;2024-03-06T16:39:49;11.70;99.90
13446;DHT22;6795;51.232;3.764;2024-03-06T16:43:24;11.80;99.90
13446;DHT22;6795;51.232;3.764;2024-03-06T16:51:14;11.90;99.90
13446;DHT22;6795;51.232;3.764;2024-03-06T16:54:40;11.90;99.90
13446;DHT22;6795;51.232;3.764;2024-03-06T16:58:00;11.80;99.90
13446;DHT22;6795;51.232;3.764;2024-03-06T17:01:07;11.80;99.90
13446;DHT22;6795;51.232;3.764;2024-03-06T17:04:41;11.60;99.90
13446;DHT22;6795;51.232;3.764;2024-03-06T17:12:35;11.40;99.90
13446;DHT22;6795;51.232;3.764;2024-03-06T17:16:04;11.20;99.90
13446;DHT22;6795;51.232;3.764;2024-03-06T17:20:05;11.10;99.90
13446;DHT22;6795;51.232;3.764;2024-03-06T17:22:54;10.90;99.90
13446;DHT22;6795;51.232;3.764;2024-03-06T17:25:56;10.90;99.90
13446;DHT22;6795;51.232;3.764;2024-03-06T17:30:03;10.80;99.90
13446;DHT22;6795;51.232;3.764;2024-03-06T17:33:27;10.60;99.90
13446;DHT22;6795;51.232;3.764;2024-03-06T17:36:28;10.40;99.90
13446;DHT22;6795;51.232;3.764;2024-03-06T17:39:49;10.30;99.90
13446;DHT22;6795;51.232;3.764;2024-03-06T17:43:06;10.30;99.90
13446;DHT22;6795;51.232;3.764;2024-03-06T17:46:38;10.10;99.90
13446;DHT22;6795;51.232;3.764;2024-03-06T17:50:38;10.00;99.90
13446;DHT22;6795;51.232;3.764;2024-03-06T17:53:41;9.90;99.90
13446;DHT22;6795;51.232;3.764;2024-03-06T17:57:02;9.90;99.90
13446;DHT22;6795;51.232;3.764;2024-03-06T18:00:48;9.70;99.90
13446;DHT22;6795;51.232;3.764;2024-03-06T18:03:54;9.60;99.90
13446;DHT22;6795;51.232;3.764;2024-03-06T18:07:27;9.40;99.90
13446;DHT22;6795;51.232;3.764;2024-03-06T18:14:44;9.20;99.90
13446;DHT22;6795;51.232;3.764;2024-03-06T18:17:51;9.00;99.90
13446;DHT22;6795;51.232;3.764;2024-03-06T18:21:13;8.80;99.90
13446;DHT22;6795;51.232;3.764;2024-03-06T18:24:23;8.60;99.90
13446;DHT22;6795;51.232;3.764;2024-03-06T18:28:01;8.30;99.90
13446;DHT22;6795;51.232;3.764;2024-03-06T18:31:12;8.20;99.90
13446;DHT22;6795;51.232;3.764;2024-03-06T18:35:09;8.10;99.90
13446;DHT22;6795;51.232;3.764;2024-03-06T18:38:31;7.80;99.90
13446;DHT22;6795;51.232;3.764;2024-03-06T18:45:32;7.50;99.90
13446;DHT22;6795;51.232;3.764;2024-03-06T18:55:59;6.60;99.90
13446;DHT22;6795;51.232;3.764;2024-03-06T19:05:59;6.40;99.90
13446;DHT22;6795;51.232;3.764;2024-03-06T20:07:07;6.10;99.90
